sensor_id;sensor_type;location;lat;lon;timestamp;P1;durP1;ratioP1;P2;durP2;ratioP2
44328;SDS011;30039;51.462;6.892;2022-10-22T00:00:11;4.00;;;1.70;;
44328;SDS011;30039;51.462;6.892;2022-10-22T00:02:57;2.95;;;1.70;;
44328;SDS011;30039;51.462;6.892;2022-10-22T00:05:43;4.00;;;1.80;;
44328;SDS011;30039;51.462;6.892;2022-10-22T00:08:30;6.18;;;2.00;;
44328;SDS011;30039;51.462;6.892;2022-10-22T00:11:16;6.28;;;1.80;;
44328;SDS011;30039;51.462;6.892;2022-10-22T00:14:03;6.63;;;2.20;;
44328;SDS011;30039;51.462;6.892;2022-10-22T00:16:48;6.78;;;1.95;;
44328;SDS011;30039;51.462;6.892;2022-10-22T00:19:34;3.10;;;1.60;;
44328;SDS011;30039;51.462;6.892;2022-10-22T00:22:20;5.25;;;2.03;;
44328;SDS011;30039;51.462;6.892;2022-10-22T00:25:06;7.50;;;1.98;;
44328;SDS011;30039;51.462;6.892;2022-10-22T00:27:52;8.43;;;1.88;;
44328;SDS011;30039;51.462;6.892;2022-10-22T00:30:38;6.03;;;2.22;;
44328;SDS011;30039;51.462;6.892;2022-10-22T00:33:26;3.75;;;1.88;;
44328;SDS011;30039;51.462;6.892;2022-10-22T00:36:12;6.45;;;2.10;;
44328;SDS011;30039;51.462;6.892;2022-10-22T00:39:05;4.43;;;2.17;;
44328;SDS011;30039;51.462;6.892;2022-10-22T00:41:52;5.05;;;2.28;;
44328;SDS011;30039;51.462;6.892;2022-10-22T00:51:04;5.43;;;2.13;;
44328;SDS011;30039;51.462;6.892;2022-10-22T00:53:52;2.67;;;1.70;;
44328;SDS011;30039;51.462;6.892;2022-10-22T00:56:40;5.13;;;2.40;;
44328;SDS011;30039;51.462;6.892;2022-10-22T00:59:26;4.65;;;2.08;;
44328;SDS011;30039;51.462;6.892;2022-10-22T01:02:12;8.35;;;2.13;;
44328;SDS011;30039;51.462;6.892;2022-10-22T01:04:58;5.07;;;2.15;;
44328;SDS011;30039;51.462;6.892;2022-10-22T01:07:46;5.40;;;1.90;;
44328;SDS011;30039;51.462;6.892;2022-10-22T01:13:40;7.03;;;2.03;;
44328;SDS011;30039;51.462;6.892;2022-10-22T01:16:34;8.63;;;1.92;;
44328;SDS011;30039;51.462;6.892;2022-10-22T01:22:32;7.28;;;2.30;;
44328;SDS011;30039;51.462;6.892;2022-10-22T01:25:33;6.67;;;2.20;;
44328;SDS011;30039;51.462;6.892;2022-10-22T01:28:40;3.60;;;2.20;;
44328;SDS011;30039;51.462;6.892;2022-10-22T01:31:29;5.82;;;2.42;;
44328;SDS011;30039;51.462;6.892;2022-10-22T01:34:16;3.35;;;1.80;;
44328;SDS011;30039;51.462;6.892;2022-10-22T01:37:02;6.97;;;2.33;;
44328;SDS011;30039;51.462;6.892;2022-10-22T01:39:48;4.97;;;2.15;;
44328;SDS011;30039;51.462;6.892;2022-10-22T01:42:35;3.65;;;1.98;;
44328;SDS011;30039;51.462;6.892;2022-10-22T01:45:20;5.18;;;2.45;;
44328;SDS011;30039;51.462;6.892;2022-10-22T01:53:53;9.52;;;2.42;;
44328;SDS011;30039;51.462;6.892;2022-10-22T01:57:02;7.10;;;2.42;;
44328;SDS011;30039;51.462;6.892;2022-10-22T02:05:35;4.47;;;2.33;;
44328;SDS011;30039;51.462;6.892;2022-10-22T02:08:23;5.63;;;2.33;;
44328;SDS011;30039;51.462;6.892;2022-10-22T02:11:11;6.63;;;2.30;;
44328;SDS011;30039;51.462;6.892;2022-10-22T02:13:58;10.50;;;2.63;;
44328;SDS011;30039;51.462;6.892;2022-10-22T02:16:46;6.38;;;2.50;;
44328;SDS011;30039;51.462;6.892;2022-10-22T02:19:51;5.47;;;2.45;;
44328;SDS011;30039;51.462;6.892;2022-10-22T02:22:37;4.40;;;2.15;;
44328;SDS011;30039;51.462;6.892;2022-10-22T02:25:26;6.28;;;2.33;;
44328;SDS011;30039;51.462;6.892;2022-10-22T02:31:31;7.30;;;2.72;;
44328;SDS011;30039;51.462;6.892;2022-10-22T02:34:20;5.90;;;2.38;;
44328;SDS011;30039;51.462;6.892;2022-10-22T02:37:07;6.43;;;2.50;;
44328;SDS011;30039;51.462;6.892;2022-10-22T02:39:53;3.78;;;2.65;;
44328;SDS011;30039;51.462;6.892;2022-10-22T02:42:40;6.05;;;2.50;;
44328;SDS011;30039;51.462;6.892;2022-10-22T02:45:27;8.25;;;2.80;;
44328;SDS011;30039;51.462;6.892;2022-10-22T02:48:13;7.82;;;2.78;;
44328;SDS011;30039;51.462;6.892;2022-10-22T02:50:59;5.15;;;3.00;;
44328;SDS011;30039;51.462;6.892;2022-10-22T02:53:45;8.50;;;3.35;;
44328;SDS011;30039;51.462;6.892;2022-10-22T02:56:31;6.90;;;3.10;;
44328;SDS011;30039;51.462;6.892;2022-10-22T02:59:16;6.28;;;3.20;;
44328;SDS011;30039;51.462;6.892;2022-10-22T03:02:02;10.32;;;3.53;;
44328;SDS011;30039;51.462;6.892;2022-10-22T03:04:48;8.80;;;3.20;;
44328;SDS011;30039;51.462;6.892;2022-10-22T03:07:33;6.68;;;3.08;;
44328;SDS011;30039;51.462;6.892;2022-10-22T03:10:19;7.95;;;3.13;;
44328;SDS011;30039;51.462;6.892;2022-10-22T03:13:05;6.43;;;2.90;;
44328;SDS011;30039;51.462;6.892;2022-10-22T03:15:54;5.90;;;2.75;;
44328;SDS011;30039;51.462;6.892;2022-10-22T03:18:39;11.10;;;3.35;;
44328;SDS011;30039;51.462;6.892;2022-10-22T03:21:33;5.05;;;3.10;;
44328;SDS011;30039;51.462;6.892;2022-10-22T03:24:27;6.95;;;2.75;;
44328;SDS011;30039;51.462;6.892;2022-10-22T03:27:14;9.25;;;2.80;;
44328;SDS011;30039;51.462;6.892;2022-10-22T03:30:01;5.93;;;2.90;;
44328;SDS011;30039;51.462;6.892;2022-10-22T03:32:47;5.47;;;2.90;;
44328;SDS011;30039;51.462;6.892;2022-10-22T03:35:35;6.07;;;2.63;;
44328;SDS011;30039;51.462;6.892;2022-10-22T03:38:22;5.35;;;2.22;;
44328;SDS011;30039;51.462;6.892;2022-10-22T03:41:08;5.40;;;3.00;;
44328;SDS011;30039;51.462;6.892;2022-10-22T03:43:55;10.65;;;3.00;;
44328;SDS011;30039;51.462;6.892;2022-10-22T03:46:41;5.10;;;2.95;;
44328;SDS011;30039;51.462;6.892;2022-10-22T03:49:27;9.52;;;3.00;;
44328;SDS011;30039;51.462;6.892;2022-10-22T03:52:13;3.53;;;2.70;;
44328;SDS011;30039;51.462;6.892;2022-10-22T03:54:59;5.28;;;2.75;;
44328;SDS011;30039;51.462;6.892;2022-10-22T03:57:45;4.63;;;2.50;;
44328;SDS011;30039;51.462;6.892;2022-10-22T04:00:33;5.07;;;3.08;;
44328;SDS011;30039;51.462;6.892;2022-10-22T04:03:18;6.60;;;2.83;;
44328;SDS011;30039;51.462;6.892;2022-10-22T04:06:09;7.22;;;2.83;;
44328;SDS011;30039;51.462;6.892;2022-10-22T04:08:55;5.43;;;3.10;;
44328;SDS011;30039;51.462;6.892;2022-10-22T04:11:41;8.68;;;2.63;;
44328;SDS011;30039;51.462;6.892;2022-10-22T04:14:26;4.80;;;2.70;;
44328;SDS011;30039;51.462;6.892;2022-10-22T04:17:13;8.32;;;2.90;;
44328;SDS011;30039;51.462;6.892;2022-10-22T04:19:59;3.97;;;2.47;;
44328;SDS011;30039;51.462;6.892;2022-10-22T04:22:45;6.60;;;3.10;;
44328;SDS011;30039;51.462;6.892;2022-10-22T04:25:30;9.70;;;3.13;;
44328;SDS011;30039;51.462;6.892;2022-10-22T04:28:16;4.45;;;2.78;;
44328;SDS011;30039;51.462;6.892;2022-10-22T04:31:13;4.03;;;2.25;;
44328;SDS011;30039;51.462;6.892;2022-10-22T04:33:59;5.60;;;2.60;;
44328;SDS011;30039;51.462;6.892;2022-10-22T04:36:45;6.28;;;2.58;;
44328;SDS011;30039;51.462;6.892;2022-10-22T04:39:30;7.10;;;3.00;;
44328;SDS011;30039;51.462;6.892;2022-10-22T04:42:16;5.80;;;2.67;;
44328;SDS011;30039;51.462;6.892;2022-10-22T04:45:05;7.43;;;3.22;;
44328;SDS011;30039;51.462;6.892;2022-10-22T04:47:51;5.20;;;2.75;;
44328;SDS011;30039;51.462;6.892;2022-10-22T04:50:36;10.80;;;2.90;;
44328;SDS011;30039;51.462;6.892;2022-10-22T04:53:22;5.75;;;3.00;;
44328;SDS011;30039;51.462;6.892;2022-10-22T04:56:09;6.38;;;2.60;;
44328;SDS011;30039;51.462;6.892;2022-10-22T04:58:59;5.60;;;2.38;;
44328;SDS011;30039;51.462;6.892;2022-10-22T05:01:45;5.32;;;2.60;;
44328;SDS011;30039;51.462;6.892;2022-10-22T05:04:31;7.63;;;3.20;;
44328;SDS011;30039;51.462;6.892;2022-10-22T05:07:16;5.15;;;3.00;;
44328;SDS011;30039;51.462;6.892;2022-10-22T05:10:02;7.93;;;3.20;;
44328;SDS011;30039;51.462;6.892;2022-10-22T05:12:48;5.97;;;2.92;;
44328;SDS011;30039;51.462;6.892;2022-10-22T05:15:34;6.55;;;3.15;;
44328;SDS011;30039;51.462;6.892;2022-10-22T05:18:19;10.60;;;2.97;;
44328;SDS011;30039;51.462;6.892;2022-10-22T05:21:10;6.55;;;2.92;;
44328;SDS011;30039;51.462;6.892;2022-10-22T05:23:56;6.57;;;3.05;;
44328;SDS011;30039;51.462;6.892;2022-10-22T05:26:44;4.82;;;3.00;;
44328;SDS011;30039;51.462;6.892;2022-10-22T05:29:31;12.07;;;3.08;;
44328;SDS011;30039;51.462;6.892;2022-10-22T05:32:17;5.80;;;2.80;;
44328;SDS011;30039;51.462;6.892;2022-10-22T05:35:03;9.35;;;3.05;;
44328;SDS011;30039;51.462;6.892;2022-10-22T05:37:48;4.07;;;2.60;;
44328;SDS011;30039;51.462;6.892;2022-10-22T05:40:34;5.60;;;2.75;;
44328;SDS011;30039;51.462;6.892;2022-10-22T05:43:20;8.23;;;2.90;;
44328;SDS011;30039;51.462;6.892;2022-10-22T05:46:07;7.55;;;2.92;;
44328;SDS011;30039;51.462;6.892;2022-10-22T05:48:54;5.82;;;2.80;;
44328;SDS011;30039;51.462;6.892;2022-10-22T05:51:40;6.13;;;3.10;;
44328;SDS011;30039;51.462;6.892;2022-10-22T05:54:25;6.47;;;2.80;;
44328;SDS011;30039;51.462;6.892;2022-10-22T05:57:11;4.82;;;2.90;;
44328;SDS011;30039;51.462;6.892;2022-10-22T05:59:57;5.60;;;3.22;;
44328;SDS011;30039;51.462;6.892;2022-10-22T06:02:42;5.00;;;3.20;;
44328;SDS011;30039;51.462;6.892;2022-10-22T06:05:28;7.32;;;3.00;;
44328;SDS011;30039;51.462;6.892;2022-10-22T06:08:14;6.95;;;2.72;;
44328;SDS011;30039;51.462;6.892;2022-10-22T06:11:00;9.68;;;2.80;;
44328;SDS011;30039;51.462;6.892;2022-10-22T06:13:48;6.18;;;2.75;;
44328;SDS011;30039;51.462;6.892;2022-10-22T06:16:34;6.32;;;2.97;;
44328;SDS011;30039;51.462;6.892;2022-10-22T06:19:20;6.75;;;2.80;;
44328;SDS011;30039;51.462;6.892;2022-10-22T06:22:06;6.20;;;2.83;;
44328;SDS011;30039;51.462;6.892;2022-10-22T06:24:53;8.23;;;2.88;;
44328;SDS011;30039;51.462;6.892;2022-10-22T06:27:39;6.68;;;3.00;;
44328;SDS011;30039;51.462;6.892;2022-10-22T06:30:25;6.25;;;2.75;;
44328;SDS011;30039;51.462;6.892;2022-10-22T06:33:10;5.18;;;2.78;;
44328;SDS011;30039;51.462;6.892;2022-10-22T06:36:06;7.30;;;3.42;;
44328;SDS011;30039;51.462;6.892;2022-10-22T06:38:53;7.80;;;3.25;;
44328;SDS011;30039;51.462;6.892;2022-10-22T06:41:41;6.60;;;3.17;;
44328;SDS011;30039;51.462;6.892;2022-10-22T06:44:27;4.93;;;2.78;;
44328;SDS011;30039;51.462;6.892;2022-10-22T06:47:13;6.90;;;2.90;;
44328;SDS011;30039;51.462;6.892;2022-10-22T06:49:58;6.15;;;2.47;;
44328;SDS011;30039;51.462;6.892;2022-10-22T06:52:44;6.15;;;2.88;;
44328;SDS011;30039;51.462;6.892;2022-10-22T06:55:30;7.70;;;2.70;;
44328;SDS011;30039;51.462;6.892;2022-10-22T06:58:15;7.75;;;2.80;;
44328;SDS011;30039;51.462;6.892;2022-10-22T07:01:02;7.97;;;2.67;;
44328;SDS011;30039;51.462;6.892;2022-10-22T07:03:51;4.00;;;2.83;;
44328;SDS011;30039;51.462;6.892;2022-10-22T07:06:37;7.28;;;3.05;;
44328;SDS011;30039;51.462;6.892;2022-10-22T07:09:22;7.38;;;2.78;;
44328;SDS011;30039;51.462;6.892;2022-10-22T07:12:09;6.47;;;2.70;;
44328;SDS011;30039;51.462;6.892;2022-10-22T07:14:55;6.85;;;2.67;;
44328;SDS011;30039;51.462;6.892;2022-10-22T07:17:41;8.82;;;2.65;;
44328;SDS011;30039;51.462;6.892;2022-10-22T07:20:26;5.43;;;2.40;;
44328;SDS011;30039;51.462;6.892;2022-10-22T07:23:12;6.30;;;2.45;;
44328;SDS011;30039;51.462;6.892;2022-10-22T07:25:58;8.70;;;2.60;;
44328;SDS011;30039;51.462;6.892;2022-10-22T07:28:44;6.25;;;2.53;;
44328;SDS011;30039;51.462;6.892;2022-10-22T07:31:30;5.65;;;2.38;;
44328;SDS011;30039;51.462;6.892;2022-10-22T07:37:27;7.85;;;2.67;;
44328;SDS011;30039;51.462;6.892;2022-10-22T07:40:13;4.70;;;2.35;;
44328;SDS011;30039;51.462;6.892;2022-10-22T07:43:01;4.85;;;2.42;;
44328;SDS011;30039;51.462;6.892;2022-10-22T07:45:46;9.85;;;2.58;;
44328;SDS011;30039;51.462;6.892;2022-10-22T07:48:32;6.88;;;2.25;;
44328;SDS011;30039;51.462;6.892;2022-10-22T07:51:18;6.15;;;2.15;;
44328;SDS011;30039;51.462;6.892;2022-10-22T07:54:03;4.20;;;1.90;;
44328;SDS011;30039;51.462;6.892;2022-10-22T07:56:49;5.28;;;2.22;;
44328;SDS011;30039;51.462;6.892;2022-10-22T07:59:35;3.35;;;1.80;;
44328;SDS011;30039;51.462;6.892;2022-10-22T08:02:21;4.88;;;1.70;;
44328;SDS011;30039;51.462;6.892;2022-10-22T08:05:07;8.77;;;2.00;;
44328;SDS011;30039;51.462;6.892;2022-10-22T08:08:02;7.40;;;2.00;;
44328;SDS011;30039;51.462;6.892;2022-10-22T08:10:50;3.70;;;1.90;;
44328;SDS011;30039;51.462;6.892;2022-10-22T08:13:37;4.22;;;1.80;;
44328;SDS011;30039;51.462;6.892;2022-10-22T08:16:23;5.25;;;1.67;;
44328;SDS011;30039;51.462;6.892;2022-10-22T08:19:08;4.85;;;1.60;;
44328;SDS011;30039;51.462;6.892;2022-10-22T08:21:54;6.63;;;1.75;;
44328;SDS011;30039;51.462;6.892;2022-10-22T08:24:40;5.85;;;1.80;;
44328;SDS011;30039;51.462;6.892;2022-10-22T08:27:25;4.82;;;1.95;;
44328;SDS011;30039;51.462;6.892;2022-10-22T08:36:04;13.95;;;10.10;;
44328;SDS011;30039;51.462;6.892;2022-10-22T08:38:50;7.07;;;2.15;;
44328;SDS011;30039;51.462;6.892;2022-10-22T08:42:02;3.38;;;1.90;;
44328;SDS011;30039;51.462;6.892;2022-10-22T08:47:37;4.75;;;2.00;;
44328;SDS011;30039;51.462;6.892;2022-10-22T08:50:31;6.30;;;1.85;;
44328;SDS011;30039;51.462;6.892;2022-10-22T08:53:21;3.58;;;1.73;;
44328;SDS011;30039;51.462;6.892;2022-10-22T08:56:09;5.50;;;1.42;;
44328;SDS011;30039;51.462;6.892;2022-10-22T08:59:00;7.43;;;2.08;;
44328;SDS011;30039;51.462;6.892;2022-10-22T09:01:49;6.93;;;1.75;;
44328;SDS011;30039;51.462;6.892;2022-10-22T09:04:38;8.23;;;1.88;;
44328;SDS011;30039;51.462;6.892;2022-10-22T09:07:27;7.05;;;1.83;;
44328;SDS011;30039;51.462;6.892;2022-10-22T09:10:13;5.75;;;1.70;;
44328;SDS011;30039;51.462;6.892;2022-10-22T09:12:59;7.70;;;1.60;;
44328;SDS011;30039;51.462;6.892;2022-10-22T09:15:47;5.70;;;1.70;;
44328;SDS011;30039;51.462;6.892;2022-10-22T09:18:59;4.78;;;1.40;;
44328;SDS011;30039;51.462;6.892;2022-10-22T09:21:57;7.35;;;1.55;;
44328;SDS011;30039;51.462;6.892;2022-10-22T09:24:48;4.47;;;1.60;;
44328;SDS011;30039;51.462;6.892;2022-10-22T09:27:38;5.40;;;1.40;;
44328;SDS011;30039;51.462;6.892;2022-10-22T09:30:25;4.20;;;1.35;;
44328;SDS011;30039;51.462;6.892;2022-10-22T09:33:13;5.55;;;1.40;;
44328;SDS011;30039;51.462;6.892;2022-10-22T09:36:00;4.38;;;1.35;;
44328;SDS011;30039;51.462;6.892;2022-10-22T09:38:51;4.65;;;1.30;;
44328;SDS011;30039;51.462;6.892;2022-10-22T09:41:37;6.53;;;1.48;;
44328;SDS011;30039;51.462;6.892;2022-10-22T09:44:23;3.42;;;1.42;;
44328;SDS011;30039;51.462;6.892;2022-10-22T09:53:13;6.88;;;1.60;;
44328;SDS011;30039;51.462;6.892;2022-10-22T09:56:05;7.22;;;1.55;;
44328;SDS011;30039;51.462;6.892;2022-10-22T09:58:53;10.35;;;2.03;;
44328;SDS011;30039;51.462;6.892;2022-10-22T10:01:40;7.70;;;2.55;;
44328;SDS011;30039;51.462;6.892;2022-10-22T10:04:26;6.15;;;1.90;;
44328;SDS011;30039;51.462;6.892;2022-10-22T10:07:16;10.10;;;2.28;;
44328;SDS011;30039;51.462;6.892;2022-10-22T10:10:05;4.47;;;1.35;;
44328;SDS011;30039;51.462;6.892;2022-10-22T10:16:07;6.03;;;1.33;;
44328;SDS011;30039;51.462;6.892;2022-10-22T10:27:39;7.18;;;1.27;;
44328;SDS011;30039;51.462;6.892;2022-10-22T10:30:25;4.30;;;1.60;;
44328;SDS011;30039;51.462;6.892;2022-10-22T10:33:20;2.88;;;1.30;;
44328;SDS011;30039;51.462;6.892;2022-10-22T10:36:24;5.97;;;1.30;;
44328;SDS011;30039;51.462;6.892;2022-10-22T10:39:15;5.95;;;2.08;;
44328;SDS011;30039;51.462;6.892;2022-10-22T10:42:20;5.00;;;1.58;;
44328;SDS011;30039;51.462;6.892;2022-10-22T10:45:15;8.52;;;1.73;;
44328;SDS011;30039;51.462;6.892;2022-10-22T10:53:53;3.38;;;1.15;;
44328;SDS011;30039;51.462;6.892;2022-10-22T10:56:44;5.10;;;1.00;;
44328;SDS011;30039;51.462;6.892;2022-10-22T11:02:28;5.80;;;1.50;;
44328;SDS011;30039;51.462;6.892;2022-10-22T11:08:19;6.15;;;1.00;;
44328;SDS011;30039;51.462;6.892;2022-10-22T11:15:11;2.42;;;1.13;;
44328;SDS011;30039;51.462;6.892;2022-10-22T11:17:39;4.22;;;1.08;;
44328;SDS011;30039;51.462;6.892;2022-10-22T11:26:26;8.55;;;1.45;;
44328;SDS011;30039;51.462;6.892;2022-10-22T11:29:22;5.47;;;1.13;;
44328;SDS011;30039;51.462;6.892;2022-10-22T11:32:10;4.15;;;1.15;;
44328;SDS011;30039;51.462;6.892;2022-10-22T11:34:58;5.15;;;1.33;;
44328;SDS011;30039;51.462;6.892;2022-10-22T11:37:45;3.53;;;1.00;;
44328;SDS011;30039;51.462;6.892;2022-10-22T11:41:18;5.30;;;1.10;;
44328;SDS011;30039;51.462;6.892;2022-10-22T11:46:44;3.97;;;1.00;;
44328;SDS011;30039;51.462;6.892;2022-10-22T11:49:44;2.72;;;1.17;;
44328;SDS011;30039;51.462;6.892;2022-10-22T11:58:29;5.13;;;0.75;;
44328;SDS011;30039;51.462;6.892;2022-10-22T12:01:19;6.38;;;1.27;;
44328;SDS011;30039;51.462;6.892;2022-10-22T12:06:59;4.47;;;1.10;;
44328;SDS011;30039;51.462;6.892;2022-10-22T12:09:46;5.10;;;1.75;;
44328;SDS011;30039;51.462;6.892;2022-10-22T12:12:37;5.95;;;0.90;;
44328;SDS011;30039;51.462;6.892;2022-10-22T12:15:27;2.45;;;1.08;;
44328;SDS011;30039;51.462;6.892;2022-10-22T12:18:13;3.20;;;0.90;;
44328;SDS011;30039;51.462;6.892;2022-10-22T12:20:59;5.82;;;1.20;;
44328;SDS011;30039;51.462;6.892;2022-10-22T12:23:45;3.63;;;1.10;;
44328;SDS011;30039;51.462;6.892;2022-10-22T12:26:31;3.03;;;0.95;;
44328;SDS011;30039;51.462;6.892;2022-10-22T12:29:19;3.35;;;1.23;;
44328;SDS011;30039;51.462;6.892;2022-10-22T12:32:09;5.20;;;1.13;;
44328;SDS011;30039;51.462;6.892;2022-10-22T12:34:57;4.38;;;1.02;;
44328;SDS011;30039;51.462;6.892;2022-10-22T12:37:48;3.03;;;1.10;;
44328;SDS011;30039;51.462;6.892;2022-10-22T12:40:34;2.85;;;1.10;;
44328;SDS011;30039;51.462;6.892;2022-10-22T12:43:27;2.67;;;0.98;;
44328;SDS011;30039;51.462;6.892;2022-10-22T12:46:13;6.15;;;1.42;;
44328;SDS011;30039;51.462;6.892;2022-10-22T12:49:02;3.35;;;1.00;;
44328;SDS011;30039;51.462;6.892;2022-10-22T12:51:48;5.28;;;1.13;;
44328;SDS011;30039;51.462;6.892;2022-10-22T12:54:34;2.78;;;0.90;;
44328;SDS011;30039;51.462;6.892;2022-10-22T12:57:20;3.90;;;1.17;;
44328;SDS011;30039;51.462;6.892;2022-10-22T13:00:17;5.57;;;1.10;;
44328;SDS011;30039;51.462;6.892;2022-10-22T13:03:05;4.13;;;1.10;;
44328;SDS011;30039;51.462;6.892;2022-10-22T13:05:50;6.80;;;0.80;;
44328;SDS011;30039;51.462;6.892;2022-10-22T13:08:36;4.32;;;1.00;;
44328;SDS011;30039;51.462;6.892;2022-10-22T13:11:23;5.00;;;1.02;;
44328;SDS011;30039;51.462;6.892;2022-10-22T13:14:19;4.25;;;1.27;;
44328;SDS011;30039;51.462;6.892;2022-10-22T13:17:11;4.70;;;1.27;;
44328;SDS011;30039;51.462;6.892;2022-10-22T13:22:59;2.90;;;1.02;;
44328;SDS011;30039;51.462;6.892;2022-10-22T13:25:55;7.05;;;1.02;;
44328;SDS011;30039;51.462;6.892;2022-10-22T13:28:41;3.40;;;0.90;;
44328;SDS011;30039;51.462;6.892;2022-10-22T13:31:30;5.07;;;1.08;;
44328;SDS011;30039;51.462;6.892;2022-10-22T13:34:23;3.28;;;0.82;;
44328;SDS011;30039;51.462;6.892;2022-10-22T13:37:09;2.88;;;1.00;;
44328;SDS011;30039;51.462;6.892;2022-10-22T13:39:54;9.07;;;1.30;;
44328;SDS011;30039;51.462;6.892;2022-10-22T13:42:40;6.35;;;1.13;;
44328;SDS011;30039;51.462;6.892;2022-10-22T13:45:26;5.47;;;1.10;;
44328;SDS011;30039;51.462;6.892;2022-10-22T13:48:15;3.90;;;1.20;;
44328;SDS011;30039;51.462;6.892;2022-10-22T13:51:03;5.10;;;0.90;;
44328;SDS011;30039;51.462;6.892;2022-10-22T13:53:50;4.68;;;1.08;;
44328;SDS011;30039;51.462;6.892;2022-10-22T13:56:36;2.95;;;1.02;;
44328;SDS011;30039;51.462;6.892;2022-10-22T13:59:22;6.03;;;1.23;;
44328;SDS011;30039;51.462;6.892;2022-10-22T14:02:11;5.30;;;1.10;;
44328;SDS011;30039;51.462;6.892;2022-10-22T14:04:57;3.80;;;1.05;;
44328;SDS011;30039;51.462;6.892;2022-10-22T14:07:47;2.40;;;0.95;;
44328;SDS011;30039;51.462;6.892;2022-10-22T14:10:33;3.88;;;0.73;;
44328;SDS011;30039;51.462;6.892;2022-10-22T14:13:19;3.63;;;0.90;;
44328;SDS011;30039;51.462;6.892;2022-10-22T14:16:06;2.75;;;1.20;;
44328;SDS011;30039;51.462;6.892;2022-10-22T14:18:52;3.10;;;1.00;;
44328;SDS011;30039;51.462;6.892;2022-10-22T14:21:39;3.50;;;0.90;;
44328;SDS011;30039;51.462;6.892;2022-10-22T14:24:24;5.25;;;1.17;;
44328;SDS011;30039;51.462;6.892;2022-10-22T14:27:11;3.83;;;0.90;;
44328;SDS011;30039;51.462;6.892;2022-10-22T14:29:57;3.65;;;0.80;;
44328;SDS011;30039;51.462;6.892;2022-10-22T14:32:42;4.03;;;1.10;;
44328;SDS011;30039;51.462;6.892;2022-10-22T14:35:28;6.43;;;1.63;;
44328;SDS011;30039;51.462;6.892;2022-10-22T14:38:14;3.40;;;1.00;;
44328;SDS011;30039;51.462;6.892;2022-10-22T14:41:01;1.60;;;0.88;;
44328;SDS011;30039;51.462;6.892;2022-10-22T14:43:47;6.88;;;1.20;;
44328;SDS011;30039;51.462;6.892;2022-10-22T14:46:33;4.95;;;0.95;;
44328;SDS011;30039;51.462;6.892;2022-10-22T14:49:18;5.65;;;1.13;;
44328;SDS011;30039;51.462;6.892;2022-10-22T14:52:04;2.42;;;1.08;;
44328;SDS011;30039;51.462;6.892;2022-10-22T14:54:49;2.72;;;0.93;;
44328;SDS011;30039;51.462;6.892;2022-10-22T14:57:35;4.00;;;1.10;;
44328;SDS011;30039;51.462;6.892;2022-10-22T15:00:23;4.25;;;1.20;;
44328;SDS011;30039;51.462;6.892;2022-10-22T15:03:09;3.05;;;0.75;;
44328;SDS011;30039;51.462;6.892;2022-10-22T15:05:57;3.67;;;0.98;;
44328;SDS011;30039;51.462;6.892;2022-10-22T15:08:45;2.33;;;0.90;;
44328;SDS011;30039;51.462;6.892;2022-10-22T15:11:30;5.60;;;1.05;;
44328;SDS011;30039;51.462;6.892;2022-10-22T15:14:16;5.70;;;0.90;;
44328;SDS011;30039;51.462;6.892;2022-10-22T15:17:03;3.85;;;1.25;;
44328;SDS011;30039;51.462;6.892;2022-10-22T15:19:49;1.75;;;0.90;;
44328;SDS011;30039;51.462;6.892;2022-10-22T15:22:34;3.55;;;1.08;;
44328;SDS011;30039;51.462;6.892;2022-10-22T15:25:20;3.17;;;1.10;;
44328;SDS011;30039;51.462;6.892;2022-10-22T15:28:07;5.55;;;2.10;;
44328;SDS011;30039;51.462;6.892;2022-10-22T15:30:53;2.65;;;1.08;;
44328;SDS011;30039;51.462;6.892;2022-10-22T15:33:40;3.17;;;1.13;;
44328;SDS011;30039;51.462;6.892;2022-10-22T15:36:26;5.75;;;1.30;;
44328;SDS011;30039;51.462;6.892;2022-10-22T15:39:11;3.00;;;1.25;;
44328;SDS011;30039;51.462;6.892;2022-10-22T15:41:57;3.53;;;1.10;;
44328;SDS011;30039;51.462;6.892;2022-10-22T15:44:43;4.82;;;1.30;;
44328;SDS011;30039;51.462;6.892;2022-10-22T15:47:29;3.75;;;1.02;;
44328;SDS011;30039;51.462;6.892;2022-10-22T15:50:15;3.97;;;1.00;;
44328;SDS011;30039;51.462;6.892;2022-10-22T15:53:01;7.07;;;1.20;;
44328;SDS011;30039;51.462;6.892;2022-10-22T15:55:47;8.05;;;1.40;;
44328;SDS011;30039;51.462;6.892;2022-10-22T15:58:34;8.35;;;1.75;;
44328;SDS011;30039;51.462;6.892;2022-10-22T16:01:19;7.85;;;1.60;;
44328;SDS011;30039;51.462;6.892;2022-10-22T16:04:05;6.15;;;1.60;;
44328;SDS011;30039;51.462;6.892;2022-10-22T16:06:52;4.05;;;1.83;;
44328;SDS011;30039;51.462;6.892;2022-10-22T16:09:38;3.95;;;1.50;;
44328;SDS011;30039;51.462;6.892;2022-10-22T16:12:24;3.10;;;1.45;;
44328;SDS011;30039;51.462;6.892;2022-10-22T16:15:10;3.60;;;1.40;;
44328;SDS011;30039;51.462;6.892;2022-10-22T16:17:55;4.50;;;1.45;;
44328;SDS011;30039;51.462;6.892;2022-10-22T16:20:41;3.00;;;1.38;;
44328;SDS011;30039;51.462;6.892;2022-10-22T16:23:27;4.88;;;1.83;;
44328;SDS011;30039;51.462;6.892;2022-10-22T16:26:14;4.22;;;1.65;;
44328;SDS011;30039;51.462;6.892;2022-10-22T16:29:00;5.35;;;1.60;;
44328;SDS011;30039;51.462;6.892;2022-10-22T16:31:48;6.57;;;1.75;;
44328;SDS011;30039;51.462;6.892;2022-10-22T16:34:33;3.97;;;1.55;;
44328;SDS011;30039;51.462;6.892;2022-10-22T16:37:20;5.22;;;2.53;;
44328;SDS011;30039;51.462;6.892;2022-10-22T16:40:06;6.72;;;2.10;;
44328;SDS011;30039;51.462;6.892;2022-10-22T16:42:54;5.28;;;1.83;;
44328;SDS011;30039;51.462;6.892;2022-10-22T16:45:50;8.50;;;1.88;;
44328;SDS011;30039;51.462;6.892;2022-10-22T16:48:36;5.28;;;1.77;;
44328;SDS011;30039;51.462;6.892;2022-10-22T16:51:27;5.30;;;2.15;;
44328;SDS011;30039;51.462;6.892;2022-10-22T16:54:13;4.57;;;1.85;;
44328;SDS011;30039;51.462;6.892;2022-10-22T16:57:00;4.03;;;2.03;;
44328;SDS011;30039;51.462;6.892;2022-10-22T16:59:46;4.07;;;1.90;;
44328;SDS011;30039;51.462;6.892;2022-10-22T17:02:32;7.10;;;2.10;;
44328;SDS011;30039;51.462;6.892;2022-10-22T17:05:20;6.13;;;2.30;;
44328;SDS011;30039;51.462;6.892;2022-10-22T17:08:06;5.20;;;2.00;;
44328;SDS011;30039;51.462;6.892;2022-10-22T17:10:51;6.57;;;2.20;;
44328;SDS011;30039;51.462;6.892;2022-10-22T17:13:38;5.15;;;2.22;;
44328;SDS011;30039;51.462;6.892;2022-10-22T17:16:25;3.95;;;2.10;;
44328;SDS011;30039;51.462;6.892;2022-10-22T17:19:11;5.13;;;2.10;;
44328;SDS011;30039;51.462;6.892;2022-10-22T17:21:57;6.00;;;2.65;;
44328;SDS011;30039;51.462;6.892;2022-10-22T17:24:43;8.63;;;3.17;;
44328;SDS011;30039;51.462;6.892;2022-10-22T17:27:29;6.10;;;2.97;;
44328;SDS011;30039;51.462;6.892;2022-10-22T17:30:15;7.85;;;2.92;;
44328;SDS011;30039;51.462;6.892;2022-10-22T17:33:01;7.40;;;2.90;;
44328;SDS011;30039;51.462;6.892;2022-10-22T17:35:48;7.28;;;3.25;;
44328;SDS011;30039;51.462;6.892;2022-10-22T17:38:37;7.50;;;3.08;;
44328;SDS011;30039;51.462;6.892;2022-10-22T17:41:31;6.10;;;2.83;;
44328;SDS011;30039;51.462;6.892;2022-10-22T17:44:17;7.80;;;3.00;;
44328;SDS011;30039;51.462;6.892;2022-10-22T17:47:03;6.47;;;2.83;;
44328;SDS011;30039;51.462;6.892;2022-10-22T17:49:48;7.43;;;2.55;;
44328;SDS011;30039;51.462;6.892;2022-10-22T17:52:34;5.75;;;2.20;;
44328;SDS011;30039;51.462;6.892;2022-10-22T17:55:20;8.20;;;3.00;;
44328;SDS011;30039;51.462;6.892;2022-10-22T17:58:06;8.02;;;2.63;;
44328;SDS011;30039;51.462;6.892;2022-10-22T18:00:52;5.15;;;2.78;;
44328;SDS011;30039;51.462;6.892;2022-10-22T18:03:38;7.22;;;2.90;;
44328;SDS011;30039;51.462;6.892;2022-10-22T18:06:23;5.93;;;2.50;;
44328;SDS011;30039;51.462;6.892;2022-10-22T18:09:09;7.60;;;2.45;;
44328;SDS011;30039;51.462;6.892;2022-10-22T18:11:56;7.30;;;2.72;;
44328;SDS011;30039;51.462;6.892;2022-10-22T18:14:42;5.88;;;2.65;;
44328;SDS011;30039;51.462;6.892;2022-10-22T18:17:29;7.15;;;2.50;;
44328;SDS011;30039;51.462;6.892;2022-10-22T18:20:15;7.32;;;2.30;;
44328;SDS011;30039;51.462;6.892;2022-10-22T18:23:00;5.53;;;2.33;;